createdAt,value
2019-03-04T00:01:42.832Z,75780.97
2019-03-04T00:04:16.148Z,75779.96
2019-03-04T00:06:45.682Z,75762.77
2019-03-04T00:09:15.204Z,75752.64
2019-03-04T00:11:44.406Z,75755.67
2019-03-04T00:14:13.626Z,75746.57
2019-03-04T00:19:10.859Z,75715.20
2019-03-04T00:21:40.431Z,75716.22
2019-03-04T00:24:10.451Z,75716.22
2019-03-04T00:26:39.916Z,75701.04
2019-03-04T00:29:09.109Z,75683.84
2019-03-04T00:31:38.410Z,75679.79
2019-03-04T00:34:07.605Z,75666.63
2019-03-04T00:36:36.845Z,75652.47
2019-03-04T00:39:10.906Z,75647.41
2019-03-04T00:41:40.504Z,75654.49
2019-03-04T00:44:09.720Z,75657.53
2019-03-04T00:46:39.030Z,75648.42
2019-03-04T00:49:08.486Z,75646.40
2019-03-04T00:51:37.609Z,75641.34
2019-03-04T00:54:05.753Z,75646.40
2019-03-04T00:56:36.461Z,75651.45
2019-03-04T00:59:06.043Z,75650.45
2019-03-04T01:01:38.328Z,75651.45
2019-03-04T01:04:07.807Z,75665.63
2019-03-04T01:06:37.077Z,75650.45
2019-03-04T01:09:32.178Z,75641.34
2019-03-04T01:11:56.976Z,75623.13
2019-03-04T01:14:26.170Z,75616.05
2019-03-04T01:16:55.364Z,75604.91
2019-03-04T01:19:24.873Z,75603.91
2019-03-04T01:21:56.493Z,75597.83
2019-03-04T01:24:25.892Z,75595.81
2019-03-04T01:26:55.054Z,75578.61
2019-03-04T01:29:24.542Z,75574.56
2019-03-04T01:31:53.864Z,75559.38
2019-03-04T01:34:26.283Z,75546.23
2019-03-04T01:36:55.410Z,75533.08
2019-03-04T01:39:26.646Z,75547.24
2019-03-04T01:41:55.909Z,75545.22
2019-03-04T01:44:25.831Z,75548.25
2019-03-04T01:46:55.370Z,75511.83
2019-03-04T01:49:27.361Z,75518.91
2019-03-04T01:51:59.743Z,75509.80
2019-03-04T01:54:28.942Z,75513.85
2019-03-04T01:57:00.126Z,75503.73
2019-03-04T01:59:37.235Z,75504.75
2019-03-04T02:02:06.472Z,75497.66
2019-03-04T02:04:35.771Z,75501.71
2019-03-04T02:07:04.972Z,75500.70
2019-03-04T02:09:34.224Z,75492.61
2019-03-04T02:12:03.568Z,75487.55
2019-03-04T02:14:34.269Z,75473.38
2019-03-04T02:17:04.148Z,75475.41
2019-03-04T02:19:34.431Z,75471.36
2019-03-04T02:22:04.420Z,75459.22
2019-03-04T02:24:33.617Z,75434.94
2019-03-04T02:27:02.755Z,75429.88
2019-03-04T02:29:50.983Z,75441.00
2019-03-04T02:32:20.202Z,75447.08
2019-03-04T02:34:49.467Z,75447.08
2019-03-04T02:37:38.076Z,75431.90
2019-03-04T02:40:07.859Z,75425.83
2019-03-04T02:42:37.077Z,75415.71
2019-03-04T02:45:08.039Z,75405.59
2019-03-04T02:47:38.038Z,75400.53
2019-03-04T02:50:13.641Z,75384.34
2019-03-04T02:52:42.986Z,75368.16
2019-03-04T02:55:12.176Z,75374.23
2019-03-04T02:57:41.384Z,75370.18
2019-03-04T03:00:11.393Z,75360.06
2019-03-04T03:02:41.589Z,75345.90
2019-03-04T03:05:14.105Z,75336.80
2019-03-04T03:07:43.777Z,75336.80
2019-03-04T03:10:13.222Z,75321.63
2019-03-04T03:12:42.500Z,75300.38
2019-03-04T03:15:12.030Z,75304.42
2019-03-04T03:17:41.220Z,75285.20
2019-03-04T03:20:12.157Z,75254.84
2019-03-04T03:22:41.705Z,75229.55
2019-03-04T03:25:10.943Z,75216.41
2019-03-04T03:27:43.261Z,75194.14
2019-03-04T03:30:12.520Z,75159.75
2019-03-04T03:32:41.715Z,75123.33
2019-03-04T03:35:11.025Z,75107.14
2019-03-04T03:37:40.434Z,75104.11
2019-03-04T03:40:11.169Z,75146.59
2019-03-04T03:42:40.660Z,75151.66
2019-03-04T03:45:10.066Z,75148.62
2019-03-04T03:47:40.105Z,75105.12
2019-03-04T03:50:09.902Z,75129.39
2019-03-04T03:52:39.104Z,75127.38
2019-03-04T03:55:08.947Z,75147.61
2019-03-04T03:57:38.247Z,75151.66
2019-03-04T04:00:10.970Z,75156.71
2019-03-04T04:02:40.184Z,75142.55
2019-03-04T04:05:12.416Z,75166.83
2019-03-04T04:07:41.981Z,75149.63
2019-03-04T04:10:12.200Z,75141.54
2019-03-04T04:12:41.776Z,75124.34
2019-03-04T04:15:11.976Z,75100.05
2019-03-04T04:17:41.569Z,75046.44
2019-03-04T04:20:10.879Z,75040.37
2019-03-04T04:22:40.067Z,75035.31
2019-03-04T04:25:09.393Z,75028.23
2019-03-04T04:27:38.847Z,75011.03
2019-03-04T04:30:08.815Z,75033.29
2019-03-04T04:32:38.311Z,75033.29
2019-03-04T04:35:15.115Z,75043.41
2019-03-04T04:37:44.378Z,75051.50
2019-03-04T04:40:13.604Z,75056.55
2019-03-04T04:42:42.996Z,75039.36
2019-03-04T04:45:12.166Z,75050.48
2019-03-04T04:47:41.497Z,75063.64
2019-03-04T04:50:14.809Z,75059.59
2019-03-04T04:52:44.078Z,75059.59
2019-03-04T04:55:15.673Z,75050.48
2019-03-04T04:57:44.943Z,75040.37
2019-03-04T05:00:14.630Z,75058.58
2019-03-04T05:02:48.690Z,75057.56
2019-03-04T05:05:18.042Z,75049.47
2019-03-04T05:07:47.426Z,75057.56
2019-03-04T05:10:17.860Z,75055.55
2019-03-04T05:12:47.143Z,75024.19
2019-03-04T05:15:18.536Z,75040.37
2019-03-04T05:17:47.886Z,75043.41
2019-03-04T05:20:19.192Z,75037.34
2019-03-04T05:22:49.348Z,75042.39
2019-03-04T05:25:18.633Z,75035.31
2019-03-04T05:27:48.324Z,75023.17
2019-03-04T05:30:18.943Z,75029.24
2019-03-04T05:32:48.424Z,75047.45
2019-03-04T05:35:17.672Z,75044.42
2019-03-04T05:37:48.696Z,75037.34
2019-03-04T05:40:17.981Z,75046.44
2019-03-04T05:42:50.020Z,75038.34
2019-03-04T05:45:19.574Z,75036.33
2019-03-04T05:47:48.810Z,75041.38
2019-03-04T05:50:18.395Z,75030.25
2019-03-04T05:52:47.653Z,75025.20
2019-03-04T05:55:16.876Z,75022.16
2019-03-04T05:57:46.132Z,75004.97
2019-03-04T06:00:17.643Z,74992.83
2019-03-04T06:02:46.973Z,75114.22
2019-03-04T06:05:16.392Z,75583.67
2019-03-04T06:07:51.934Z,75836.63
2019-03-04T06:10:21.228Z,75885.20
2019-03-04T06:12:50.400Z,75909.48
2019-03-04T06:15:20.656Z,75944.90
2019-03-04T06:17:49.989Z,75957.05
2019-03-04T06:20:19.594Z,75964.13
2019-03-04T06:22:49.049Z,75959.06
2019-03-04T06:25:20.377Z,75963.11
2019-03-04T06:27:49.651Z,75994.48
2019-03-04T06:30:20.666Z,75986.39
2019-03-04T06:32:50.067Z,75974.25
2019-03-04T06:35:19.263Z,75980.31
2019-03-04T06:37:48.567Z,75942.88
2019-03-04T06:40:18.023Z,75939.84
2019-03-04T06:42:47.697Z,75946.92
2019-03-04T06:45:17.098Z,75913.53
2019-03-04T06:47:47.206Z,75902.40
2019-03-04T06:50:45.513Z,75873.05
2019-03-04T06:53:46.530Z,75843.71
2019-03-04T06:56:26.839Z,75823.47
2019-03-04T06:59:04.285Z,75800.20
2019-03-04T07:01:41.072Z,75774.91
2019-03-04T07:04:21.170Z,75770.86
2019-03-04T07:06:50.375Z,75757.70
2019-03-04T07:09:20.509Z,75745.56
2019-03-04T07:11:51.107Z,75740.50
2019-03-04T07:14:20.280Z,75722.28
2019-03-04T07:16:50.628Z,75723.30
2019-03-04T07:19:30.408Z,75722.28
2019-03-04T07:22:00.413Z,75725.32
2019-03-04T07:24:29.640Z,75692.94
2019-03-04T07:26:59.435Z,75686.88
2019-03-04T07:29:30.353Z,75695.98
2019-03-04T07:32:00.760Z,75685.86
2019-03-04T07:34:29.905Z,75675.74
2019-03-04T07:36:59.172Z,75665.63
2019-03-04T07:39:28.471Z,75646.40
2019-03-04T07:42:00.171Z,75616.05
2019-03-04T07:44:29.447Z,75610.98
2019-03-04T07:46:58.635Z,75614.02
2019-03-04T07:49:27.933Z,75591.77
2019-03-04T07:51:57.163Z,75583.67
2019-03-04T07:54:26.627Z,75580.63
2019-03-04T07:56:55.873Z,75586.70
2019-03-04T07:59:26.990Z,75562.42
2019-03-04T08:01:56.260Z,75560.39
2019-03-04T08:04:25.488Z,75552.30
2019-03-04T08:07:22.752Z,75556.34
2019-03-04T08:10:12.438Z,75549.27
2019-03-04T08:13:05.199Z,75545.22
2019-03-04T08:15:49.483Z,75548.25
2019-03-04T08:18:20.599Z,75563.43
2019-03-04T08:20:49.976Z,75554.33
2019-03-04T08:23:19.538Z,75560.39
2019-03-04T08:25:49.383Z,75565.45
2019-03-04T08:28:18.712Z,75562.42
2019-03-04T08:30:47.920Z,75565.45
2019-03-04T08:33:17.480Z,75560.39
2019-03-04T08:35:46.816Z,75555.34
2019-03-04T08:38:16.017Z,75549.27
2019-03-04T08:40:46.945Z,75538.13
2019-03-04T08:43:16.251Z,75535.09
2019-03-04T08:45:45.516Z,75536.11
2019-03-04T08:48:14.772Z,75509.80
2019-03-04T08:50:43.933Z,75499.69
2019-03-04T08:53:16.009Z,75479.45
2019-03-04T08:55:45.513Z,75477.42
2019-03-04T08:58:16.090Z,75479.45
2019-03-04T09:00:45.343Z,75474.39
2019-03-04T09:03:14.548Z,75474.39
2019-03-04T09:05:43.773Z,75462.25
2019-03-04T09:08:13.898Z,75474.39
2019-03-04T09:10:43.287Z,75472.38
2019-03-04T09:13:12.509Z,75473.38
2019-03-04T09:15:41.785Z,75465.28
2019-03-04T09:18:12.843Z,75459.22
2019-03-04T09:20:42.053Z,75462.25
2019-03-04T09:23:11.261Z,75453.14
2019-03-04T09:25:48.986Z,75434.94
2019-03-04T09:28:18.208Z,75439.99
2019-03-04T09:30:47.602Z,75443.03
2019-03-04T09:33:19.581Z,75453.14
2019-03-04T09:35:48.996Z,75467.31
2019-03-04T09:38:18.173Z,75443.03
2019-03-04T09:40:47.638Z,75477.42
2019-03-04T09:43:17.230Z,75482.48
2019-03-04T09:45:46.738Z,75473.38
2019-03-04T09:48:16.006Z,75478.44
2019-03-04T09:50:45.327Z,75473.38
2019-03-04T09:53:14.531Z,75481.48
2019-03-04T09:55:43.752Z,75480.47
2019-03-04T09:58:13.086Z,75490.58
2019-03-04T10:01:03.088Z,75470.34
2019-03-04T10:04:10.301Z,75436.95
2019-03-04T10:07:15.222Z,75420.77
2019-03-04T10:10:07.203Z,75399.52
2019-03-04T10:13:20.026Z,75381.31
2019-03-04T10:16:25.330Z,75410.66
2019-03-04T10:19:53.830Z,75405.59
2019-03-04T10:23:10.387Z,75424.81
2019-03-04T10:26:22.913Z,75428.86
2019-03-04T10:29:35.175Z,75427.85
2019-03-04T10:32:31.054Z,75435.95
2019-03-04T10:35:41.903Z,75439.99
2019-03-04T10:38:29.219Z,75428.86
2019-03-04T10:41:23.858Z,75451.13
2019-03-04T10:44:15.310Z,75468.32
2019-03-04T10:46:55.910Z,75473.38
2019-03-04T10:49:26.574Z,75484.52
2019-03-04T10:51:56.545Z,75470.34
2019-03-04T10:54:26.520Z,75463.27
2019-03-04T10:56:59.590Z,75457.19
2019-03-04T10:59:29.423Z,75448.09
2019-03-04T11:01:59.275Z,75430.89
2019-03-04T11:04:34.101Z,75436.95
2019-03-04T11:07:07.635Z,75466.30
2019-03-04T11:09:37.896Z,75521.95
2019-03-04T11:12:07.956Z,75686.88
2019-03-04T11:14:39.039Z,75779.96
2019-03-04T11:17:12.966Z,75851.80
2019-03-04T11:19:42.724Z,75920.61
2019-03-04T11:22:17.804Z,75940.85
2019-03-04T11:24:53.782Z,75971.21
2019-03-04T11:27:23.812Z,76012.70
2019-03-04T11:29:53.688Z,76014.72
2019-03-04T11:32:26.614Z,76027.88
2019-03-04T11:34:57.081Z,76052.16
2019-03-04T11:37:27.046Z,76066.33
2019-03-04T11:40:13.701Z,76078.47
2019-03-04T11:42:43.593Z,76077.46
2019-03-04T11:45:17.981Z,76069.37
2019-03-04T11:47:50.251Z,76060.26
2019-03-04T11:50:22.006Z,76059.25
2019-03-04T11:52:54.253Z,76085.56
2019-03-04T11:55:24.317Z,76084.55
2019-03-04T11:57:53.593Z,76068.35
2019-03-04T12:00:43.396Z,76065.31
2019-03-04T12:03:13.445Z,76054.19
2019-03-04T12:05:42.952Z,76045.08
2019-03-04T12:08:14.032Z,76043.05
2019-03-04T12:10:43.552Z,76044.06
2019-03-04T12:13:13.078Z,76034.96
2019-03-04T12:15:44.149Z,76031.92
2019-03-04T12:18:13.494Z,76033.95
2019-03-04T12:20:42.826Z,76007.64
2019-03-04T12:23:18.951Z,75980.31
2019-03-04T12:25:48.516Z,75956.03
2019-03-04T12:28:19.238Z,75889.24
2019-03-04T12:30:49.502Z,75843.71
2019-03-04T12:33:19.399Z,75883.17
2019-03-04T12:35:49.191Z,75906.45
2019-03-04T12:38:18.831Z,75905.44
2019-03-04T12:40:48.537Z,75930.73
2019-03-04T12:43:17.843Z,75938.83
2019-03-04T12:45:47.215Z,75919.60
2019-03-04T12:48:16.718Z,75938.83
2019-03-04T12:50:46.078Z,75936.80
2019-03-04T12:53:21.912Z,75958.05
2019-03-04T12:55:51.553Z,75953.00
2019-03-04T12:58:24.039Z,75950.97
2019-03-04T13:01:07.693Z,75954.01
2019-03-04T13:03:46.131Z,75932.76
2019-03-04T13:06:18.438Z,75945.91
2019-03-04T13:08:50.551Z,75971.21
2019-03-04T13:11:20.034Z,75973.23
2019-03-04T13:13:50.426Z,75980.31
2019-03-04T13:16:19.877Z,76001.56
2019-03-04T13:18:50.177Z,76002.58
2019-03-04T13:21:19.615Z,75987.40
2019-03-04T13:23:48.983Z,75997.52
2019-03-04T13:26:18.670Z,76015.73
2019-03-04T13:28:51.137Z,76000.55
2019-03-04T13:31:22.287Z,75970.20
2019-03-04T13:33:54.766Z,75958.05
2019-03-04T13:36:24.126Z,75970.20
2019-03-04T13:38:54.148Z,75988.41
2019-03-04T13:41:25.656Z,76006.63
2019-03-04T13:43:57.164Z,76005.61
2019-03-04T13:46:26.478Z,75998.53
2019-03-04T13:48:55.824Z,76010.67
2019-03-04T13:51:31.298Z,76006.63
2019-03-04T13:54:04.997Z,76017.76
2019-03-04T13:56:34.467Z,75997.52
2019-03-04T13:59:04.479Z,75999.55
2019-03-04T14:01:33.725Z,76005.61
2019-03-04T14:04:06.013Z,76009.66
2019-03-04T14:06:35.494Z,75978.29
2019-03-04T14:09:05.845Z,75975.26
2019-03-04T14:11:35.208Z,75960.08
2019-03-04T14:14:06.743Z,75971.21
2019-03-04T14:16:37.046Z,75989.42
2019-03-04T14:19:06.486Z,75987.40
2019-03-04T14:21:36.005Z,75981.33
2019-03-04T14:24:05.434Z,76001.56
2019-03-04T14:26:36.763Z,76008.65
2019-03-04T14:29:07.598Z,76010.67
2019-03-04T14:31:36.988Z,75991.45
2019-03-04T14:34:32.848Z,75994.48
2019-03-04T14:36:59.628Z,75991.45
2019-03-04T14:39:30.292Z,76003.59
2019-03-04T14:41:59.485Z,76019.78
2019-03-04T14:44:29.655Z,76017.76
2019-03-04T14:46:59.010Z,76012.70
2019-03-04T14:49:28.374Z,76014.72
2019-03-04T14:51:57.892Z,76033.95
2019-03-04T14:54:27.182Z,76036.98
2019-03-04T14:56:56.480Z,76067.34
2019-03-04T14:59:25.988Z,76065.31
2019-03-04T15:01:58.523Z,76069.37
2019-03-04T15:04:27.800Z,76065.31
2019-03-04T15:06:57.179Z,76085.56
2019-03-04T15:09:26.931Z,76070.38
2019-03-04T15:11:56.299Z,76073.41
2019-03-04T15:14:25.864Z,76088.59
2019-03-04T15:17:03.315Z,76085.56
2019-03-04T15:19:28.160Z,76085.56
2019-03-04T15:21:57.975Z,76089.61
2019-03-04T15:24:28.979Z,76093.66
2019-03-04T15:26:58.287Z,76091.63
2019-03-04T15:29:27.855Z,76084.55
2019-03-04T15:31:57.400Z,76085.56
2019-03-04T15:34:26.820Z,76095.67
2019-03-04T15:36:57.213Z,76097.70
2019-03-04T15:39:26.692Z,76104.78
2019-03-04T15:41:58.188Z,76116.92
2019-03-04T15:44:29.325Z,76125.02
2019-03-04T15:46:59.196Z,76134.13
2019-03-04T15:49:30.579Z,76140.20
2019-03-04T15:52:02.159Z,76149.31
2019-03-04T15:54:32.082Z,76158.42
2019-03-04T15:57:05.258Z,76158.42
2019-03-04T15:59:37.634Z,76170.56
2019-03-04T16:02:09.257Z,76178.66
2019-03-04T16:04:38.554Z,76186.75
2019-03-04T16:07:09.649Z,76205.98
2019-03-04T16:09:39.789Z,76210.03
2019-03-04T16:12:09.724Z,76210.03
2019-03-04T16:14:39.154Z,76216.10
2019-03-04T16:17:09.474Z,76226.22
2019-03-04T16:19:38.739Z,76232.30
2019-03-04T16:22:11.256Z,76232.30
2019-03-04T16:24:42.588Z,76243.42
2019-03-04T16:27:13.778Z,76227.23
2019-03-04T16:29:43.048Z,76233.30
2019-03-04T16:32:12.697Z,76245.45
2019-03-04T16:34:43.527Z,76255.57
2019-03-04T16:37:13.280Z,76256.58
2019-03-04T16:39:42.590Z,76262.66
2019-03-04T16:42:12.856Z,76263.66
2019-03-04T16:44:42.117Z,76276.82
2019-03-04T16:47:11.823Z,76271.77
2019-03-04T16:49:41.195Z,76294.03
2019-03-04T16:52:10.620Z,76302.13
2019-03-04T16:54:40.649Z,76309.20
2019-03-04T16:57:13.852Z,76313.25
2019-03-04T16:59:46.625Z,76325.40
2019-03-04T17:02:16.145Z,76345.64
2019-03-04T17:04:45.360Z,76341.59
2019-03-04T17:07:14.605Z,76343.61
2019-03-04T17:09:43.815Z,76363.86
2019-03-04T17:12:13.023Z,76366.89
2019-03-04T17:14:52.419Z,76379.04
2019-03-04T17:17:22.574Z,76377.02
2019-03-04T17:19:51.819Z,76394.22
2019-03-04T17:22:21.146Z,76409.40
2019-03-04T17:24:55.686Z,76403.33
2019-03-04T17:27:24.795Z,76410.41
2019-03-04T17:29:56.669Z,76424.58
2019-03-04T17:32:29.208Z,76432.67
2019-03-04T17:34:59.432Z,76438.75
2019-03-04T17:37:28.802Z,76442.80
2019-03-04T17:39:58.675Z,76446.84
2019-03-04T17:42:28.713Z,76450.89
2019-03-04T17:44:59.261Z,76448.87
2019-03-04T17:47:30.799Z,76450.89
2019-03-04T17:50:00.297Z,76460.00
2019-03-04T17:52:30.270Z,76464.05
2019-03-04T17:55:01.918Z,76456.96
2019-03-04T17:57:31.193Z,76469.11
2019-03-04T18:00:00.728Z,76471.13
2019-03-04T18:02:30.224Z,76481.25
2019-03-04T18:04:59.472Z,76493.40
2019-03-04T18:07:28.857Z,76497.45
2019-03-04T18:09:58.123Z,76504.53
2019-03-04T18:12:27.414Z,76505.55
2019-03-04T18:14:56.659Z,76498.45
2019-03-04T18:17:26.173Z,76509.59
2019-03-04T18:19:56.028Z,76502.51
2019-03-04T18:22:25.321Z,76507.56
2019-03-04T18:25:09.275Z,76507.56
2019-03-04T18:27:55.449Z,76501.50
2019-03-04T18:30:44.521Z,76508.58
2019-03-04T18:33:43.740Z,76517.69
2019-03-04T18:36:51.406Z,76513.64
2019-03-04T18:39:46.309Z,76512.63
2019-03-04T18:42:53.630Z,76522.75
2019-03-04T18:46:51.466Z,76525.78
2019-03-04T18:56:29.543Z,76548.05
2019-03-04T18:58:59.142Z,76558.17
2019-03-04T19:01:28.728Z,76558.17
2019-03-04T19:03:58.266Z,76561.20
2019-03-04T19:06:30.646Z,76566.27
2019-03-04T19:09:01.195Z,76560.20
2019-03-04T19:11:31.606Z,76567.28
2019-03-04T19:14:04.673Z,76575.38
2019-03-04T19:16:36.879Z,76570.31
2019-03-04T19:19:14.635Z,76573.35
2019-03-04T19:21:46.546Z,76578.41
2019-03-04T19:24:15.942Z,76581.45
2019-03-04T19:26:45.207Z,76579.42
2019-03-04T19:29:14.827Z,76587.52
2019-03-04T19:31:47.777Z,76585.50
2019-03-04T19:34:17.402Z,76594.61
2019-03-04T19:36:47.226Z,76596.63
2019-03-04T19:39:19.125Z,76603.72
2019-03-04T19:41:51.685Z,76612.83
2019-03-04T19:44:21.277Z,76613.84
2019-03-04T19:46:50.630Z,76605.73
2019-03-04T19:49:20.893Z,76605.73
2019-03-04T19:51:50.320Z,76618.90
2019-03-04T19:54:25.618Z,76618.90
2019-03-04T19:56:57.314Z,76625.98
2019-03-04T19:59:27.233Z,76615.86
2019-03-04T20:01:56.849Z,76614.84
2019-03-04T20:04:27.435Z,76618.90
2019-03-04T20:06:59.803Z,76617.88
2019-03-04T20:09:29.168Z,76614.84
2019-03-04T20:11:58.894Z,76601.69
2019-03-04T20:14:34.455Z,76602.70
2019-03-04T20:17:04.711Z,76602.70
2019-03-04T20:19:36.967Z,76599.67
2019-03-04T20:22:09.352Z,76589.55
2019-03-04T20:24:39.003Z,76592.58
2019-03-04T20:27:09.205Z,76581.45
2019-03-04T20:29:39.579Z,76581.45
2019-03-04T20:32:11.855Z,76580.44
2019-03-04T20:34:41.448Z,76575.38
2019-03-04T20:37:11.939Z,76577.40
2019-03-04T20:39:42.382Z,76579.42
2019-03-04T20:42:12.016Z,76578.41
2019-03-04T20:44:41.191Z,76578.41
2019-03-04T20:47:10.370Z,76578.41
2019-03-04T20:49:43.124Z,76572.34
2019-03-04T20:52:16.016Z,76581.45
2019-03-04T20:54:45.188Z,76570.31
2019-03-04T20:57:17.510Z,76587.52
2019-03-04T20:59:46.708Z,76583.47
2019-03-04T21:02:16.559Z,76608.78
2019-03-04T21:04:45.965Z,76647.23
2019-03-04T21:07:15.624Z,76694.80
2019-03-04T21:09:45.244Z,76740.35
2019-03-04T21:12:14.844Z,76809.18
2019-03-04T21:14:47.222Z,76827.40
2019-03-04T21:17:16.829Z,76853.72
2019-03-04T21:19:46.095Z,76859.79
2019-03-04T21:22:15.887Z,76867.88
2019-03-04T21:24:45.301Z,76881.05
2019-03-04T21:27:14.545Z,76891.17
2019-03-04T21:29:49.408Z,76886.11
2019-03-04T21:32:41.456Z,76905.34
2019-03-04T21:35:47.409Z,76908.38
2019-03-04T21:38:17.387Z,76912.42
2019-03-04T21:40:59.871Z,76906.34
2019-03-04T21:43:39.956Z,76903.31
2019-03-04T21:46:57.742Z,76910.40
2019-03-04T21:49:29.076Z,76916.47
2019-03-04T21:52:29.790Z,76898.25
2019-03-04T21:54:59.383Z,76899.27
2019-03-04T21:57:32.524Z,76896.23
2019-03-04T22:00:02.755Z,76871.94
2019-03-04T22:02:35.542Z,76878.00
2019-03-04T22:05:10.256Z,76878.00
2019-03-04T22:07:39.491Z,76875.98
2019-03-04T22:10:10.127Z,76874.97
2019-03-04T22:12:39.801Z,76869.91
2019-03-04T22:15:09.347Z,76873.95
2019-03-04T22:17:39.029Z,76868.90
2019-03-04T22:20:09.372Z,76865.86
2019-03-04T22:22:38.568Z,76864.84
2019-03-04T22:25:09.134Z,76871.94
2019-03-04T22:27:38.515Z,76864.84
2019-03-04T22:30:10.161Z,76853.72
2019-03-04T22:32:39.654Z,76858.78
2019-03-04T22:35:10.695Z,76853.72
2019-03-04T22:37:39.938Z,76855.73
2019-03-04T22:40:14.333Z,76841.57
2019-03-04T22:42:46.204Z,76831.45
2019-03-04T22:45:17.233Z,76821.33
2019-03-04T22:47:46.792Z,76827.40
2019-03-04T22:50:16.684Z,76819.30
2019-03-04T22:52:46.242Z,76818.29
2019-03-04T22:55:24.522Z,76809.18
2019-03-04T22:57:53.853Z,76807.16
2019-03-04T23:01:29.329Z,76808.16
2019-03-04T23:04:28.851Z,76794.00
2019-03-04T23:07:12.170Z,76806.14
2019-03-04T23:10:00.367Z,76802.09
2019-03-04T23:12:37.770Z,76801.08
2019-03-04T23:15:09.191Z,76803.11
2019-03-04T23:17:38.579Z,76804.12
2019-03-04T23:20:07.865Z,76809.18
2019-03-04T23:22:37.184Z,76819.30
2019-03-04T23:25:07.065Z,76820.31
2019-03-04T23:27:36.241Z,76816.27
2019-03-04T23:30:08.087Z,76816.27
2019-03-04T23:32:37.296Z,76815.25
2019-03-04T23:35:07.366Z,76817.27
2019-03-04T23:37:36.675Z,76807.16
2019-03-04T23:40:08.590Z,76810.19
2019-03-04T23:42:38.618Z,76828.41
2019-03-04T23:45:09.407Z,76824.36
2019-03-04T23:47:40.893Z,76831.45
2019-03-04T23:50:21.398Z,76844.61
2019-03-04T23:52:50.883Z,76836.51
2019-03-04T23:55:20.211Z,76839.55
2019-03-04T23:57:49.384Z,76845.62
